createdAt,value
2019-03-09T00:00:43.729Z,6.90
2019-03-09T00:03:14.675Z,5.60
2019-03-09T00:05:45.097Z,8.43
2019-03-09T00:08:15.531Z,7.73
2019-03-09T00:10:46.048Z,9.63
2019-03-09T00:13:16.478Z,4.90
2019-03-09T00:15:47.207Z,8.70
2019-03-09T00:18:18.121Z,6.23
2019-03-09T00:20:48.551Z,8.00
2019-03-09T00:23:35.317Z,7.67
2019-03-09T00:26:25.998Z,8.37
2019-03-09T00:29:04.482Z,7.60
2019-03-09T00:31:42.871Z,7.17
2019-03-09T00:34:13.670Z,8.07
2019-03-09T00:36:44.471Z,6.60
2019-03-09T00:39:15.176Z,4.57
2019-03-09T00:41:45.948Z,8.30
2019-03-09T00:44:16.719Z,5.53
2019-03-09T00:46:48.195Z,5.97
2019-03-09T00:49:18.620Z,6.50
2019-03-09T00:51:49.046Z,5.30
2019-03-09T00:54:19.834Z,5.60
2019-03-09T00:56:50.265Z,7.67
2019-03-09T00:59:20.696Z,7.23
2019-03-09T01:01:51.533Z,5.70
2019-03-09T01:04:21.971Z,8.80
2019-03-09T01:06:52.487Z,7.00
2019-03-09T01:09:24.719Z,6.80
2019-03-09T01:11:55.203Z,6.50
2019-03-09T01:14:25.630Z,6.57
2019-03-09T01:16:56.080Z,10.63
2019-03-09T01:19:26.532Z,7.47
2019-03-09T01:21:57.337Z,8.20
2019-03-09T01:24:27.743Z,9.50
2019-03-09T01:26:58.514Z,11.70
2019-03-09T01:29:29.840Z,8.67
2019-03-09T01:32:00.271Z,6.53
2019-03-09T01:34:31.431Z,8.13
2019-03-09T01:37:01.935Z,7.27
2019-03-09T01:39:32.427Z,5.63
2019-03-09T01:42:03.500Z,6.93
2019-03-09T01:44:33.980Z,9.80
2019-03-09T01:47:04.416Z,5.53
2019-03-09T01:49:35.224Z,7.57
2019-03-09T01:52:05.651Z,8.03
2019-03-09T01:54:36.395Z,8.37
2019-03-09T01:57:06.895Z,8.57
2019-03-09T01:59:37.366Z,6.30
2019-03-09T02:02:08.118Z,8.33
2019-03-09T02:04:39.168Z,9.03
2019-03-09T02:07:09.607Z,10.33
2019-03-09T02:09:40.044Z,13.73
2019-03-09T02:12:10.916Z,6.87
2019-03-09T02:14:41.346Z,6.73
2019-03-09T02:17:11.779Z,9.10
2019-03-09T02:19:42.268Z,8.40
2019-03-09T02:22:13.785Z,11.60
2019-03-09T02:24:44.754Z,8.30
2019-03-09T02:27:15.210Z,7.27
2019-03-09T02:29:45.644Z,7.67
2019-03-09T02:32:16.421Z,11.60
2019-03-09T02:34:48.571Z,8.93
2019-03-09T02:37:19.037Z,9.80
2019-03-09T02:40:00.557Z,8.73
2019-03-09T02:42:32.585Z,11.97
2019-03-09T02:45:04.450Z,13.53
2019-03-09T02:47:35.044Z,6.97
2019-03-09T02:50:06.549Z,9.50
2019-03-09T02:52:36.983Z,11.47
2019-03-09T02:55:07.760Z,10.67
2019-03-09T02:57:38.255Z,8.37
2019-03-09T03:00:11.193Z,9.10
2019-03-09T03:02:44.807Z,8.47
2019-03-09T03:05:16.584Z,11.47
2019-03-09T03:07:47.066Z,10.13
2019-03-09T03:10:17.539Z,10.90
2019-03-09T03:12:48.036Z,10.63
2019-03-09T03:15:43.650Z,10.83
2019-03-09T03:18:14.098Z,13.37
2019-03-09T03:20:44.608Z,10.33
2019-03-09T03:23:15.135Z,10.40
2019-03-09T03:25:47.067Z,9.83
2019-03-09T03:28:17.493Z,11.23
2019-03-09T03:30:48.004Z,9.47
2019-03-09T03:33:18.425Z,8.07
2019-03-09T03:35:49.981Z,11.47
2019-03-09T03:38:20.422Z,10.63
2019-03-09T03:40:52.681Z,13.03
2019-03-09T03:43:23.124Z,5.73
2019-03-09T03:45:53.539Z,7.27
2019-03-09T03:48:24.041Z,12.90
2019-03-09T03:50:54.473Z,6.10
2019-03-09T03:53:25.242Z,12.33
2019-03-09T03:55:55.812Z,7.63
2019-03-09T03:58:26.240Z,7.80
2019-03-09T04:00:56.762Z,6.40
2019-03-09T04:03:27.238Z,6.50
2019-03-09T04:05:57.655Z,8.20
2019-03-09T04:08:28.747Z,6.77
2019-03-09T04:10:59.566Z,8.47
2019-03-09T04:13:30.158Z,6.80
2019-03-09T04:16:00.574Z,7.10
2019-03-09T04:18:31.020Z,4.47
2019-03-09T04:21:02.063Z,5.97
2019-03-09T04:23:34.152Z,6.03
2019-03-09T04:26:04.599Z,7.77
2019-03-09T04:28:35.233Z,3.33
2019-03-09T04:31:05.961Z,5.00
2019-03-09T04:33:36.380Z,3.50
2019-03-09T04:36:07.242Z,6.37
2019-03-09T04:38:38.078Z,3.33
2019-03-09T04:41:08.495Z,5.23
2019-03-09T04:43:39.048Z,5.57
2019-03-09T04:46:09.480Z,5.47
2019-03-09T04:48:39.920Z,5.47
2019-03-09T04:51:10.348Z,7.80
2019-03-09T04:53:41.172Z,4.30
2019-03-09T04:56:11.920Z,5.60
2019-03-09T04:58:42.334Z,5.80
2019-03-09T05:01:12.789Z,3.53
2019-03-09T05:03:43.386Z,4.37
2019-03-09T05:06:17.039Z,3.00
2019-03-09T05:09:16.534Z,3.20
2019-03-09T05:11:47.283Z,4.27
2019-03-09T05:14:21.242Z,4.43
2019-03-09T05:16:51.747Z,2.67
2019-03-09T05:19:22.178Z,3.40
2019-03-09T05:21:52.943Z,4.57
2019-03-09T05:24:23.419Z,2.53
2019-03-09T05:26:53.844Z,3.10
2019-03-09T05:29:24.259Z,2.50
2019-03-09T05:31:54.715Z,1.40
2019-03-09T05:34:25.136Z,3.23
2019-03-09T05:36:55.873Z,2.83
2019-03-09T05:39:26.293Z,2.33
2019-03-09T05:41:56.719Z,2.43
2019-03-09T05:44:27.174Z,1.80
2019-03-09T05:46:57.596Z,2.30
2019-03-09T05:49:28.387Z,3.43
2019-03-09T05:52:28.654Z,2.67
2019-03-09T05:55:00.412Z,1.50
2019-03-09T05:57:30.800Z,1.10
2019-03-09T06:00:01.239Z,0.97
2019-03-09T06:02:32.055Z,1.43
2019-03-09T06:05:02.777Z,3.10
2019-03-09T06:07:33.208Z,1.00
2019-03-09T06:10:03.659Z,0.83
2019-03-09T06:12:34.082Z,1.20
2019-03-09T06:15:04.595Z,0.93
2019-03-09T06:17:35.046Z,1.00
2019-03-09T06:20:06.301Z,1.10
2019-03-09T06:22:36.720Z,2.43
2019-03-09T06:25:07.359Z,1.00
2019-03-09T06:27:37.767Z,0.90
2019-03-09T06:30:08.827Z,1.33
2019-03-09T06:33:16.242Z,1.20
2019-03-09T06:35:48.035Z,1.67
2019-03-09T06:38:37.587Z,1.20
2019-03-09T06:41:09.915Z,1.37
2019-03-09T06:43:40.339Z,2.00
2019-03-09T06:46:10.764Z,2.20
2019-03-09T06:48:41.214Z,2.93
2019-03-09T06:51:11.635Z,2.37
2019-03-09T06:53:42.454Z,2.00
2019-03-09T06:56:12.897Z,2.80
2019-03-09T06:58:43.326Z,3.33
2019-03-09T07:01:20.956Z,4.37
2019-03-09T07:03:51.750Z,5.87
2019-03-09T07:06:22.181Z,5.90
2019-03-09T07:08:52.612Z,6.10
2019-03-09T07:11:23.093Z,4.03
2019-03-09T07:13:53.830Z,3.77
2019-03-09T07:16:24.614Z,5.50
2019-03-09T07:18:55.127Z,7.50
2019-03-09T07:21:25.563Z,6.90
2019-03-09T07:23:56.082Z,4.77
2019-03-09T07:26:26.515Z,6.63
2019-03-09T07:28:58.078Z,3.73
2019-03-09T07:31:28.600Z,3.50
2019-03-09T07:34:23.570Z,5.93
2019-03-09T07:36:54.355Z,8.70
2019-03-09T07:39:25.143Z,7.60
2019-03-09T07:41:55.594Z,6.13
2019-03-09T07:44:26.015Z,5.87
2019-03-09T07:46:56.483Z,4.30
2019-03-09T07:49:26.915Z,4.70
2019-03-09T07:51:57.343Z,4.17
2019-03-09T07:54:27.794Z,5.03
2019-03-09T07:56:58.247Z,8.43
2019-03-09T07:59:29.342Z,5.13
2019-03-09T08:02:00.545Z,4.90
2019-03-09T08:04:30.975Z,6.80
2019-03-09T08:07:01.394Z,7.23
2019-03-09T08:09:31.961Z,3.33
2019-03-09T08:12:03.482Z,4.93
2019-03-09T08:14:34.279Z,5.77
2019-03-09T08:17:05.095Z,4.83
2019-03-09T08:19:35.523Z,10.93
2019-03-09T08:22:06.009Z,5.37
2019-03-09T08:24:36.443Z,4.57
2019-03-09T08:27:08.771Z,4.20
2019-03-09T08:29:39.532Z,6.00
2019-03-09T08:32:09.993Z,7.07
2019-03-09T08:34:40.484Z,7.60
2019-03-09T08:37:10.998Z,5.60
2019-03-09T08:39:42.419Z,4.07
2019-03-09T08:42:12.978Z,6.67
2019-03-09T08:44:43.503Z,5.03
2019-03-09T08:47:13.949Z,7.27
2019-03-09T08:49:44.401Z,5.23
2019-03-09T08:52:14.985Z,5.03
2019-03-09T08:54:45.594Z,6.57
2019-03-09T08:57:17.670Z,9.40
2019-03-09T08:59:48.281Z,7.83
2019-03-09T09:02:19.184Z,5.77
2019-03-09T09:04:52.903Z,8.20
2019-03-09T09:07:23.503Z,7.33
2019-03-09T09:09:55.802Z,6.87
2019-03-09T09:12:28.006Z,5.07
2019-03-09T09:14:58.434Z,4.40
2019-03-09T09:17:29.181Z,5.10
2019-03-09T09:19:59.982Z,7.23
2019-03-09T09:22:30.469Z,6.63
2019-03-09T09:25:01.871Z,7.30
2019-03-09T09:27:32.310Z,6.83
2019-03-09T09:30:03.543Z,7.10
2019-03-09T09:32:33.979Z,8.47
2019-03-09T09:35:04.892Z,7.53
2019-03-09T09:37:35.320Z,8.47
2019-03-09T09:40:07.785Z,9.53
2019-03-09T09:42:38.559Z,8.37
2019-03-09T09:45:11.798Z,9.90
2019-03-09T09:47:42.689Z,10.47
2019-03-09T09:50:13.407Z,9.73
2019-03-09T09:52:44.800Z,10.40
2019-03-09T09:55:15.906Z,9.13
2019-03-09T09:57:46.767Z,14.77
2019-03-09T10:00:19.538Z,9.03
2019-03-09T10:02:50.013Z,10.93
2019-03-09T10:05:20.473Z,11.57
2019-03-09T10:07:52.056Z,10.53
2019-03-09T10:10:22.613Z,9.73
2019-03-09T10:12:53.065Z,8.53
2019-03-09T10:15:25.192Z,11.50
2019-03-09T10:17:55.920Z,10.33
2019-03-09T10:20:26.458Z,12.37
2019-03-09T10:23:04.169Z,8.93
2019-03-09T10:25:29.789Z,11.03
2019-03-09T10:28:00.938Z,7.10
2019-03-09T10:30:31.963Z,10.00
2019-03-09T10:33:02.397Z,11.80
2019-03-09T10:35:33.139Z,11.03
2019-03-09T10:38:04.776Z,11.47
2019-03-09T10:40:35.589Z,10.03
2019-03-09T10:43:06.144Z,12.20
2019-03-09T10:45:36.938Z,12.70
2019-03-09T10:48:07.685Z,13.67
2019-03-09T10:50:38.125Z,9.77
2019-03-09T10:53:08.607Z,9.83
2019-03-09T10:55:39.049Z,9.90
2019-03-09T10:58:09.587Z,12.43
2019-03-09T11:00:40.117Z,16.83
2019-03-09T11:03:10.924Z,13.48
2019-03-09T11:05:41.385Z,13.67
2019-03-09T11:08:11.865Z,12.27
2019-03-09T11:10:42.293Z,9.13
2019-03-09T11:13:12.836Z,10.77
2019-03-09T11:15:44.375Z,8.27
2019-03-09T11:18:15.158Z,8.97
2019-03-09T11:20:45.589Z,10.30
2019-03-09T11:23:16.078Z,11.50
2019-03-09T11:25:47.504Z,9.97
2019-03-09T11:28:17.993Z,10.00
2019-03-09T11:30:48.448Z,7.20
2019-03-09T11:33:19.959Z,10.83
2019-03-09T11:35:52.469Z,8.20
2019-03-09T11:38:24.872Z,8.17
2019-03-09T11:40:58.520Z,7.17
2019-03-09T11:43:27.445Z,8.67
2019-03-09T11:45:59.129Z,9.00
2019-03-09T11:48:29.564Z,8.50
2019-03-09T11:51:01.830Z,11.20
2019-03-09T11:53:32.313Z,6.83
2019-03-09T11:56:03.248Z,10.40
2019-03-09T11:58:34.738Z,7.90
2019-03-09T12:01:05.297Z,7.57
2019-03-09T12:03:35.746Z,14.30
2019-03-09T12:06:06.225Z,6.13
2019-03-09T12:08:37.059Z,7.30
2019-03-09T12:11:59.723Z,8.50
2019-03-09T12:14:30.456Z,6.50
2019-03-09T12:17:01.247Z,6.53
2019-03-09T12:19:31.719Z,7.03
2019-03-09T12:22:02.159Z,6.33
2019-03-09T12:24:33.256Z,4.77
2019-03-09T12:27:03.780Z,7.23
2019-03-09T12:29:34.378Z,5.10
2019-03-09T12:32:04.834Z,7.13
2019-03-09T12:34:35.678Z,5.13
2019-03-09T12:37:06.121Z,5.83
2019-03-09T12:39:36.564Z,6.87
2019-03-09T12:42:07.032Z,8.97
2019-03-09T12:44:37.560Z,4.63
2019-03-09T12:47:08.017Z,6.90
2019-03-09T12:49:38.611Z,4.90
2019-03-09T12:52:09.058Z,7.90
2019-03-09T12:54:39.575Z,4.13
2019-03-09T12:57:10.414Z,4.60
2019-03-09T12:59:40.842Z,4.80
2019-03-09T13:02:11.286Z,4.87
2019-03-09T13:04:41.773Z,5.60
2019-03-09T13:07:12.506Z,5.17
2019-03-09T13:09:42.980Z,2.77
2019-03-09T13:12:13.780Z,4.00
2019-03-09T13:14:44.234Z,5.10
2019-03-09T13:17:15.386Z,4.20
2019-03-09T13:19:45.849Z,5.10
2019-03-09T13:22:16.699Z,3.07
2019-03-09T13:24:47.559Z,4.30
2019-03-09T13:27:18.032Z,3.93
2019-03-09T13:29:48.553Z,4.83
2019-03-09T13:32:20.124Z,2.63
2019-03-09T13:34:50.957Z,3.67
2019-03-09T13:37:21.425Z,3.60
2019-03-09T13:39:51.887Z,4.37
2019-03-09T13:42:22.344Z,5.57
2019-03-09T13:44:53.214Z,2.70
2019-03-09T13:47:23.837Z,4.37
2019-03-09T13:49:54.253Z,3.33
2019-03-09T13:52:25.359Z,5.17
2019-03-09T13:54:55.804Z,4.47
2019-03-09T13:57:26.269Z,7.00
2019-03-09T13:59:56.703Z,3.37
2019-03-09T14:02:27.490Z,3.80
2019-03-09T14:05:00.329Z,4.17
2019-03-09T14:07:32.236Z,3.07
2019-03-09T14:10:02.973Z,4.67
2019-03-09T14:12:33.886Z,6.53
2019-03-09T14:15:05.096Z,7.27
2019-03-09T14:17:37.406Z,4.70
2019-03-09T14:20:08.549Z,8.87
2019-03-09T14:22:38.992Z,6.30
2019-03-09T14:25:10.056Z,6.77
2019-03-09T14:27:42.351Z,4.97
2019-03-09T14:30:14.379Z,5.57
2019-03-09T14:32:44.908Z,4.77
2019-03-09T14:35:16.000Z,6.10
2019-03-09T14:37:46.604Z,4.50
2019-03-09T14:40:17.179Z,6.93
2019-03-09T14:42:49.476Z,5.37
2019-03-09T14:45:20.348Z,7.60
2019-03-09T14:47:50.864Z,5.70
2019-03-09T14:50:21.313Z,7.93
2019-03-09T14:52:51.761Z,5.33
2019-03-09T14:55:22.296Z,6.50
2019-03-09T14:57:52.739Z,6.53
2019-03-09T15:00:23.539Z,6.87
2019-03-09T15:02:54.012Z,6.13
2019-03-09T15:05:24.463Z,6.33
2019-03-09T15:07:54.880Z,7.63
2019-03-09T15:10:25.401Z,6.43
2019-03-09T15:12:55.806Z,7.53
2019-03-09T15:15:26.580Z,5.23
2019-03-09T15:17:57.055Z,8.10
2019-03-09T15:20:27.495Z,4.50
2019-03-09T15:22:58.326Z,7.83
2019-03-09T15:25:28.763Z,6.43
2019-03-09T15:27:59.219Z,7.13
2019-03-09T15:30:29.708Z,5.80
2019-03-09T15:33:00.198Z,3.13
2019-03-09T15:35:30.624Z,3.47
2019-03-09T15:38:01.381Z,3.20
2019-03-09T15:40:31.832Z,6.03
2019-03-09T15:43:02.261Z,4.17
2019-03-09T15:45:33.119Z,3.60
2019-03-09T15:48:03.956Z,3.00
2019-03-09T15:50:34.387Z,2.23
2019-03-09T15:53:04.904Z,3.50
2019-03-09T15:55:35.358Z,2.47
2019-03-09T15:58:06.293Z,3.20
2019-03-09T16:00:36.811Z,4.90
2019-03-09T16:03:07.556Z,6.00
2019-03-09T16:05:38.709Z,5.97
2019-03-09T16:08:09.181Z,7.70
2019-03-09T16:10:41.645Z,8.40
2019-03-09T16:13:14.221Z,11.70
2019-03-09T16:15:44.694Z,8.80
2019-03-09T16:18:15.196Z,10.40
2019-03-09T16:20:45.650Z,8.33
2019-03-09T16:23:16.077Z,13.13
2019-03-09T16:25:46.536Z,11.67
2019-03-09T16:28:17.374Z,8.27
2019-03-09T16:30:47.845Z,14.60
2019-03-09T16:33:18.304Z,10.70
2019-03-09T16:35:49.117Z,13.00
2019-03-09T16:38:19.565Z,10.50
2019-03-09T16:40:49.992Z,14.73
2019-03-09T16:43:20.467Z,7.93
2019-03-09T16:45:50.916Z,9.53
2019-03-09T16:48:21.392Z,9.30
2019-03-09T16:50:52.170Z,8.33
2019-03-09T16:53:23.040Z,9.00
2019-03-09T16:55:53.483Z,5.87
2019-03-09T16:58:23.957Z,8.07
2019-03-09T17:00:54.405Z,4.93
2019-03-09T17:03:24.892Z,10.03
2019-03-09T17:05:55.670Z,5.20
2019-03-09T17:08:26.105Z,2.17
2019-03-09T17:10:56.560Z,3.33
2019-03-09T17:13:27.011Z,1.40
2019-03-09T17:15:57.485Z,3.80
2019-03-09T17:18:27.927Z,2.20
2019-03-09T17:20:58.356Z,1.60
2019-03-09T17:23:28.847Z,3.20
2019-03-09T17:25:59.664Z,1.47
2019-03-09T17:28:30.159Z,2.27
2019-03-09T17:31:00.634Z,1.60
2019-03-09T17:33:31.063Z,1.37
2019-03-09T17:36:01.850Z,4.00
2019-03-09T17:38:34.306Z,1.47
2019-03-09T17:41:06.264Z,4.57
2019-03-09T17:43:38.837Z,1.73
2019-03-09T17:46:09.263Z,3.50
2019-03-09T17:48:40.143Z,4.60
2019-03-09T17:51:10.568Z,3.73
2019-03-09T17:53:41.065Z,2.33
2019-03-09T17:56:12.453Z,2.60
2019-03-09T17:58:43.259Z,3.77
2019-03-09T18:01:13.831Z,2.20
2019-03-09T18:03:44.254Z,2.33
2019-03-09T18:06:14.686Z,1.80
2019-03-09T18:08:45.542Z,2.73
2019-03-09T18:11:15.999Z,5.90
2019-03-09T18:13:46.460Z,2.17
2019-03-09T18:16:17.238Z,3.90
2019-03-09T18:18:49.995Z,4.37
2019-03-09T18:21:20.844Z,2.47
2019-03-09T18:23:51.281Z,3.33
2019-03-09T18:26:21.796Z,3.03
2019-03-09T18:28:52.252Z,5.60
2019-03-09T18:31:22.741Z,7.23
2019-03-09T18:33:55.189Z,4.37
2019-03-09T18:36:25.983Z,5.57
2019-03-09T18:38:56.476Z,3.53
2019-03-09T18:41:28.022Z,4.17
2019-03-09T18:43:58.759Z,6.47
2019-03-09T18:46:29.392Z,4.13
2019-03-09T18:48:59.819Z,6.27
2019-03-09T18:51:30.609Z,6.50
2019-03-09T18:54:03.187Z,3.60
2019-03-09T18:56:34.435Z,2.80
2019-03-09T18:59:05.374Z,4.27
2019-03-09T19:01:35.799Z,7.20
2019-03-09T19:04:06.319Z,3.57
2019-03-09T19:06:36.766Z,2.80
2019-03-09T19:09:09.611Z,8.33
2019-03-09T19:11:42.026Z,2.33
2019-03-09T19:14:12.463Z,4.63
2019-03-09T19:16:43.603Z,3.53
2019-03-09T19:19:14.443Z,4.97
2019-03-09T19:21:45.282Z,5.50
2019-03-09T19:24:15.719Z,5.87
2019-03-09T19:26:46.177Z,5.20
2019-03-09T19:29:16.755Z,5.53
2019-03-09T19:31:47.618Z,5.70
2019-03-09T19:34:18.666Z,2.73
2019-03-09T19:36:49.175Z,3.87
2019-03-09T19:39:27.064Z,5.03
2019-03-09T19:41:57.931Z,8.20
2019-03-09T19:44:28.404Z,5.20
2019-03-09T19:46:58.910Z,3.87
2019-03-09T19:49:31.851Z,5.83
2019-03-09T19:52:03.961Z,4.80
2019-03-09T19:54:37.207Z,5.60
2019-03-09T19:57:07.633Z,5.93
2019-03-09T19:59:38.084Z,3.93
2019-03-09T20:02:08.838Z,8.90
2019-03-09T20:04:39.358Z,4.60
2019-03-09T20:07:10.107Z,4.93
2019-03-09T20:09:40.855Z,6.57
2019-03-09T20:12:11.994Z,6.10
2019-03-09T20:14:43.156Z,4.00
2019-03-09T20:17:13.682Z,6.93
2019-03-09T20:19:44.534Z,6.17
2019-03-09T20:22:16.950Z,5.50
2019-03-09T20:24:48.130Z,5.73
2019-03-09T20:27:19.583Z,6.93
2019-03-09T20:29:55.932Z,5.67
2019-03-09T20:32:26.839Z,5.87
2019-03-09T20:34:57.262Z,5.77
2019-03-09T20:37:27.762Z,5.40
2019-03-09T20:39:58.240Z,4.80
2019-03-09T20:42:29.368Z,5.37
2019-03-09T20:45:00.582Z,3.07
2019-03-09T20:47:31.026Z,7.80
2019-03-09T20:50:02.155Z,4.77
2019-03-09T20:52:33.030Z,5.47
2019-03-09T20:55:04.163Z,5.37
2019-03-09T20:57:34.596Z,4.97
2019-03-09T21:00:06.652Z,9.73
2019-03-09T21:02:37.139Z,5.63
2019-03-09T21:05:08.779Z,3.63
2019-03-09T21:07:39.560Z,4.33
2019-03-09T21:10:11.524Z,7.90
2019-03-09T21:12:55.937Z,5.87
2019-03-09T21:15:26.587Z,4.87
2019-03-09T21:17:57.613Z,8.80
2019-03-09T21:20:29.147Z,7.77
2019-03-09T21:23:01.242Z,4.67
2019-03-09T21:25:32.547Z,8.67
2019-03-09T21:28:03.012Z,5.23
2019-03-09T21:30:33.497Z,2.77
2019-03-09T21:33:04.295Z,3.13
2019-03-09T21:35:34.739Z,8.87
2019-03-09T21:38:05.181Z,4.23
2019-03-09T21:40:35.652Z,4.10
2019-03-09T21:43:06.375Z,9.17
2019-03-09T21:45:36.820Z,6.40
2019-03-09T21:48:07.306Z,7.87
2019-03-09T21:50:37.752Z,8.27
2019-03-09T21:53:08.179Z,7.60
2019-03-09T21:55:38.664Z,3.97
2019-03-09T21:58:11.708Z,5.13
2019-03-09T22:00:42.161Z,5.90
2019-03-09T22:03:12.832Z,7.20
2019-03-09T22:05:43.286Z,5.87
2019-03-09T22:08:13.769Z,7.43
2019-03-09T22:10:44.208Z,12.07
2019-03-09T22:13:14.679Z,11.60
2019-03-09T22:15:45.140Z,8.27
2019-03-09T22:18:15.912Z,7.10
2019-03-09T22:20:46.339Z,6.43
2019-03-09T22:23:17.139Z,6.37
2019-03-09T22:25:47.575Z,6.53
2019-03-09T22:28:19.356Z,6.30
2019-03-09T22:30:49.763Z,8.33
2019-03-09T22:33:20.277Z,6.97
2019-03-09T22:35:50.709Z,10.37
2019-03-09T22:38:21.134Z,7.33
2019-03-09T22:40:51.625Z,12.43
2019-03-09T22:43:22.425Z,10.43
2019-03-09T22:45:52.865Z,11.97
2019-03-09T22:48:23.369Z,8.77
2019-03-09T22:50:54.159Z,11.30
2019-03-09T22:53:24.586Z,7.67
2019-03-09T22:55:55.043Z,8.73
2019-03-09T22:58:25.477Z,12.00
2019-03-09T23:00:56.016Z,10.90
2019-03-09T23:03:26.755Z,7.77
2019-03-09T23:05:57.247Z,13.43
2019-03-09T23:08:27.669Z,9.93
2019-03-09T23:10:59.226Z,10.87
2019-03-09T23:13:30.062Z,7.93
2019-03-09T23:16:01.673Z,10.43
2019-03-09T23:18:32.155Z,12.43
2019-03-09T23:21:03.549Z,6.53
2019-03-09T23:23:33.979Z,12.50
2019-03-09T23:26:04.462Z,9.00
2019-03-09T23:28:48.841Z,10.40
2019-03-09T23:31:19.705Z,14.07
2019-03-09T23:33:50.180Z,11.43
2019-03-09T23:36:20.659Z,10.53
2019-03-09T23:38:51.092Z,10.57
2019-03-09T23:41:21.554Z,10.27
2019-03-09T23:43:52.388Z,13.83
2019-03-09T23:46:22.849Z,11.17
2019-03-09T23:48:53.497Z,10.87
2019-03-09T23:51:24.367Z,7.23
2019-03-09T23:53:54.800Z,13.17
2019-03-09T23:56:25.236Z,9.03
2019-03-09T23:58:55.712Z,11.77
